createdAt,value
2023-03-06T00:01:32.223Z,100969.63
2023-03-06T00:04:01.984Z,100969.63
2023-03-06T00:06:31.737Z,100969.88
2023-03-06T00:09:01.534Z,100963.63
2023-03-06T00:11:31.273Z,100962.78
2023-03-06T00:14:01.086Z,100958.53
2023-03-06T00:16:30.855Z,100960.27
2023-03-06T00:19:00.659Z,100952.95
2023-03-06T00:21:30.720Z,100957.58
2023-03-06T00:24:00.812Z,100950.05
2023-03-06T00:26:30.591Z,100947.27
2023-03-06T00:29:00.662Z,100946.62
2023-03-06T00:31:30.443Z,100942.72
2023-03-06T00:34:00.221Z,100943.17
2023-03-06T00:36:30.003Z,100934.64
2023-03-06T00:38:59.742Z,100940.66
2023-03-06T00:41:29.552Z,100940.48
2023-03-06T00:44:00.135Z,100934.42
2023-03-06T00:46:29.964Z,100934.18
2023-03-06T00:48:59.750Z,100935.02
2023-03-06T00:51:29.581Z,100930.76
2023-03-06T00:53:59.443Z,100925.92
2023-03-06T00:56:30.006Z,100926.05
2023-03-06T00:58:59.773Z,100918.63
2023-03-06T01:01:29.539Z,100907.54
2023-03-06T01:03:59.603Z,100914.80
2023-03-06T01:06:29.824Z,100918.89
2023-03-06T01:08:59.556Z,100914.45
2023-03-06T01:11:29.308Z,100905.36
2023-03-06T01:13:59.389Z,100913.80
2023-03-06T01:16:29.344Z,100911.25
2023-03-06T01:18:59.715Z,100909.80
2023-03-06T01:21:29.437Z,100907.48
2023-03-06T01:23:59.233Z,100905.23
2023-03-06T01:26:29.057Z,100896.70
2023-03-06T01:28:59.131Z,100899.39
2023-03-06T01:31:30.597Z,100889.33
2023-03-06T01:34:00.743Z,100882.48
2023-03-06T01:36:30.636Z,100883.55
2023-03-06T01:39:00.130Z,100883.31
2023-03-06T01:41:30.544Z,100887.02
2023-03-06T01:44:00.320Z,100883.50
2023-03-06T01:46:40.435Z,100872.72
2023-03-06T01:49:16.054Z,100866.59
2023-03-06T01:51:51.626Z,100860.12
2023-03-06T01:54:30.229Z,100854.56
2023-03-06T01:57:17.705Z,100859.11
2023-03-06T01:59:51.935Z,100844.67
2023-03-06T02:02:23.250Z,100844.67
2023-03-06T02:04:53.258Z,100852.35
2023-03-06T02:07:23.262Z,100850.48
2023-03-06T02:09:53.020Z,100838.83
2023-03-06T02:12:23.414Z,100838.83
2023-03-06T02:14:53.601Z,100843.44
2023-03-06T02:17:24.540Z,100841.57
2023-03-06T02:20:15.103Z,100847.67
2023-03-06T02:23:06.719Z,100847.67
2023-03-06T02:25:42.340Z,100845.90
2023-03-06T02:28:15.175Z,100840.79
2023-03-06T02:30:47.175Z,100838.66
2023-03-06T02:33:20.152Z,100844.43
2023-03-06T02:36:04.385Z,100839.44
2023-03-06T02:38:39.900Z,100840.79
2023-03-06T02:41:11.087Z,100840.79
2023-03-06T02:43:42.069Z,100845.25
2023-03-06T02:46:11.991Z,100840.71
2023-03-06T02:48:41.746Z,100839.39
2023-03-06T02:51:11.493Z,100835.35
2023-03-06T02:53:41.335Z,100830.83
2023-03-06T02:56:11.610Z,100837.23
2023-03-06T02:58:43.483Z,100825.69
2023-03-06T03:01:13.547Z,100819.52
2023-03-06T03:03:44.284Z,100814.38
2023-03-06T03:06:14.561Z,100816.33
2023-03-06T03:08:45.477Z,100815.98
2023-03-06T03:11:16.095Z,100806.72
2023-03-06T03:13:46.535Z,100795.53
2023-03-06T03:16:18.223Z,100799.34
2023-03-06T03:18:52.430Z,100789.59
2023-03-06T03:21:23.451Z,100783.93
2023-03-06T03:23:54.935Z,100785.45
2023-03-06T03:26:26.527Z,100774.17
2023-03-06T03:28:58.009Z,100771.98
2023-03-06T03:31:29.173Z,100776.12
2023-03-06T03:33:59.157Z,100772.30
2023-03-06T03:36:30.745Z,100766.74
2023-03-06T03:39:01.188Z,100760.57
2023-03-06T03:41:31.080Z,100755.75
2023-03-06T03:44:01.335Z,100757.41
2023-03-06T03:46:31.120Z,100753.62
2023-03-06T03:49:01.837Z,100746.48
2023-03-06T03:51:31.940Z,100746.73
2023-03-06T03:54:01.863Z,100747.67
2023-03-06T03:56:33.867Z,100745.30
2023-03-06T03:59:05.701Z,100742.84
2023-03-06T04:01:39.576Z,100741.41
2023-03-06T04:04:11.343Z,100737.96
2023-03-06T04:06:41.664Z,100738.19
2023-03-06T04:09:11.608Z,100733.67
2023-03-06T04:11:41.369Z,100729.08
2023-03-06T04:14:11.132Z,100725.17
2023-03-06T04:16:41.212Z,100731.16
2023-03-06T04:19:11.701Z,100734.20
2023-03-06T04:21:41.928Z,100729.83
2023-03-06T04:24:11.685Z,100727.28
2023-03-06T04:26:41.997Z,100718.44
2023-03-06T04:29:12.671Z,100723.81
2023-03-06T04:31:42.618Z,100720.66
2023-03-06T04:34:12.500Z,100712.59
2023-03-06T04:36:44.035Z,100717.06
2023-03-06T04:39:14.994Z,100716.80
2023-03-06T04:41:44.751Z,100720.22
2023-03-06T04:44:14.772Z,100719.20
2023-03-06T04:46:44.571Z,100715.27
2023-03-06T04:49:14.615Z,100715.27
2023-03-06T04:51:44.420Z,100703.59
2023-03-06T04:54:14.207Z,100703.82
2023-03-06T04:56:43.980Z,100696.52
2023-03-06T04:59:13.753Z,100696.97
2023-03-06T05:01:43.481Z,100696.03
2023-03-06T05:04:13.117Z,100694.33
2023-03-06T05:06:43.228Z,100700.84
2023-03-06T05:09:12.964Z,100703.43
2023-03-06T05:11:42.453Z,100699.28
2023-03-06T05:14:12.210Z,100691.33
2023-03-06T05:16:42.026Z,100692.85
2023-03-06T05:19:11.799Z,100686.41
2023-03-06T05:21:41.586Z,100686.32
2023-03-06T05:24:13.882Z,100686.32
2023-03-06T05:26:43.370Z,100683.76
2023-03-06T05:29:13.103Z,100679.67
2023-03-06T05:31:42.923Z,100676.98
2023-03-06T05:34:17.024Z,100672.89
2023-03-06T05:36:47.396Z,100675.30
2023-03-06T05:39:17.150Z,100665.35
2023-03-06T05:44:15.176Z,100669.44
2023-03-06T05:46:44.913Z,100663.23
2023-03-06T05:49:14.415Z,100669.27
2023-03-06T05:51:44.228Z,100664.08
2023-03-06T05:54:14.013Z,100660.93
2023-03-06T05:56:43.729Z,100667.92
2023-03-06T05:59:13.482Z,100662.06
2023-03-06T06:01:43.293Z,100675.23
2023-03-06T06:04:13.082Z,100666.32
2023-03-06T06:06:43.020Z,100669.09
2023-03-06T06:09:13.979Z,100668.59
2023-03-06T06:11:43.755Z,100667.58
2023-03-06T06:14:14.688Z,100668.25
2023-03-06T06:16:44.804Z,100666.30
2023-03-06T06:19:16.589Z,100665.63
2023-03-06T06:21:54.081Z,100665.66
2023-03-06T06:24:26.363Z,100665.66
2023-03-06T06:26:58.247Z,100672.06
2023-03-06T06:29:29.024Z,100675.91
2023-03-06T06:31:59.439Z,100677.56
2023-03-06T06:34:30.553Z,100679.01
2023-03-06T06:37:00.324Z,100681.77
2023-03-06T06:39:30.444Z,100674.66
2023-03-06T06:42:25.919Z,100680.16
2023-03-06T06:44:33.556Z,100676.25
2023-03-06T06:47:24.010Z,100679.34
2023-03-06T06:49:39.321Z,100672.54
2023-03-06T06:52:12.090Z,100667.79
2023-03-06T06:54:41.922Z,100666.06
2023-03-06T06:57:13.239Z,100668.80
2023-03-06T06:59:43.640Z,100669.30
2023-03-06T07:02:14.534Z,100665.33
2023-03-06T07:05:02.032Z,100666.39
2023-03-06T07:07:16.420Z,100667.82
2023-03-06T07:09:46.195Z,100674.94
2023-03-06T07:12:16.074Z,100675.77
2023-03-06T07:14:46.735Z,100669.44
2023-03-06T07:17:16.783Z,100678.61
2023-03-06T07:19:47.027Z,100681.81
2023-03-06T07:22:16.789Z,100678.64
2023-03-06T07:24:46.880Z,100686.42
2023-03-06T07:27:17.003Z,100687.03
2023-03-06T07:29:48.429Z,100689.29
2023-03-06T07:32:17.974Z,100690.09
2023-03-06T07:34:48.203Z,100694.37
2023-03-06T07:37:18.056Z,100693.57
2023-03-06T07:39:47.830Z,100692.56
2023-03-06T07:42:17.405Z,100693.89
2023-03-06T07:44:48.886Z,100683.47
2023-03-06T07:47:18.647Z,100686.84
2023-03-06T07:49:48.766Z,100688.84
2023-03-06T07:52:18.488Z,100685.84
2023-03-06T07:54:49.034Z,100684.45
2023-03-06T07:57:18.823Z,100680.12
2023-03-06T07:59:48.674Z,100688.17
2023-03-06T08:02:18.704Z,100688.17
2023-03-06T08:04:53.490Z,100683.32
2023-03-06T08:07:24.083Z,100691.59
2023-03-06T08:09:53.870Z,100686.55
2023-03-06T08:12:23.309Z,100691.44
2023-03-06T08:14:53.093Z,100689.91
2023-03-06T08:17:22.885Z,100695.63
2023-03-06T08:19:52.641Z,100681.95
2023-03-06T08:22:22.519Z,100685.33
2023-03-06T08:24:56.778Z,100682.65
2023-03-06T08:27:26.623Z,100687.84
2023-03-06T08:29:56.434Z,100680.41
2023-03-06T08:32:27.136Z,100691.07
2023-03-06T08:34:56.901Z,100691.35
2023-03-06T08:37:26.722Z,100689.52
2023-03-06T08:39:56.820Z,100692.30
2023-03-06T08:42:26.540Z,100696.63
2023-03-06T08:44:56.644Z,100696.63
2023-03-06T08:47:26.175Z,100703.37
2023-03-06T08:49:55.943Z,100700.69
2023-03-06T08:52:25.548Z,100690.53
2023-03-06T08:54:55.301Z,100690.53
2023-03-06T08:57:25.060Z,100702.02
2023-03-06T08:59:54.815Z,100693.93
2023-03-06T09:02:24.629Z,100697.75
2023-03-06T09:04:55.009Z,100697.56
2023-03-06T09:07:24.931Z,100689.61
2023-03-06T09:09:58.758Z,100678.73
2023-03-06T09:12:30.736Z,100688.73
2023-03-06T09:15:00.374Z,100680.31
2023-03-06T09:17:30.166Z,100682.28
2023-03-06T09:19:59.932Z,100673.94
2023-03-06T09:22:29.673Z,100667.61
2023-03-06T09:24:59.864Z,100667.61
2023-03-06T09:27:29.722Z,100674.95
2023-03-06T09:29:59.560Z,100678.83
2023-03-06T09:32:29.806Z,100676.75
2023-03-06T09:34:59.883Z,100678.72
2023-03-06T09:37:29.649Z,100680.34
2023-03-06T09:39:59.177Z,100680.34
2023-03-06T09:42:29.996Z,100669.62
2023-03-06T09:45:02.925Z,100673.58
2023-03-06T09:47:47.680Z,100676.22
2023-03-06T09:50:34.991Z,100675.41
2023-03-06T09:53:19.658Z,100676.83
2023-03-06T09:55:54.117Z,100678.14
2023-03-06T09:58:26.384Z,100679.34
2023-03-06T10:01:04.905Z,100684.19
2023-03-06T10:03:49.056Z,100675.75
2023-03-06T10:06:27.984Z,100682.95
2023-03-06T10:09:09.624Z,100678.81
2023-03-06T10:11:44.892Z,100685.53
2023-03-06T10:14:48.955Z,100683.89
2023-03-06T10:17:23.782Z,100676.69
2023-03-06T10:19:54.150Z,100679.26
2023-03-06T10:22:34.392Z,100676.02
2023-03-06T10:25:22.005Z,100687.03
2023-03-06T10:27:57.675Z,100674.28
2023-03-06T10:30:36.608Z,100676.66
2023-03-06T10:33:25.480Z,100679.39
2023-03-06T10:35:56.919Z,100676.48
2023-03-06T10:38:29.177Z,100672.83
2023-03-06T10:41:10.652Z,100672.23
2023-03-06T10:43:48.420Z,100676.36
2023-03-06T10:46:21.328Z,100684.80
2023-03-06T10:48:54.174Z,100684.80
2023-03-06T10:51:26.056Z,100677.38
2023-03-06T10:54:01.038Z,100670.23
2023-03-06T10:56:39.634Z,100675.89
2023-03-06T10:59:20.300Z,100675.86
2023-03-06T11:01:51.808Z,100669.55
2023-03-06T11:04:30.987Z,100670.11
2023-03-06T11:07:19.570Z,100677.58
2023-03-06T11:10:01.318Z,100676.07
2023-03-06T11:12:34.306Z,100678.33
2023-03-06T11:15:20.873Z,100681.73
2023-03-06T11:18:04.125Z,100674.86
2023-03-06T11:20:50.522Z,100673.51
2023-03-06T11:23:30.935Z,100669.55
2023-03-06T11:26:06.570Z,100672.62
2023-03-06T11:28:42.061Z,100675.50
2023-03-06T11:34:13.817Z,100662.50
2023-03-06T11:37:01.329Z,100661.22
2023-03-06T11:39:36.640Z,100664.73
2023-03-06T11:42:43.876Z,100657.50
2023-03-06T11:45:37.264Z,100649.71
2023-03-06T11:48:25.972Z,100645.98
2023-03-06T11:50:58.849Z,100647.55
2023-03-06T11:53:37.616Z,100645.47
2023-03-06T11:56:14.465Z,100648.97
2023-03-06T11:59:18.054Z,100634.55
2023-03-06T12:02:02.943Z,100636.77
2023-03-06T12:04:53.351Z,100636.77
2023-03-06T12:07:31.733Z,100625.87
2023-03-06T12:16:03.654Z,100621.92
2023-03-06T12:18:55.725Z,100621.93
2023-03-06T12:21:37.319Z,100614.04
2023-03-06T12:24:21.256Z,100614.11
2023-03-06T12:27:11.692Z,100606.78
2023-03-06T12:29:53.357Z,100604.05
2023-03-06T12:32:28.693Z,100597.00
2023-03-06T12:35:06.006Z,100595.11
2023-03-06T12:37:56.724Z,100590.67
2023-03-06T12:40:47.461Z,100607.05
2023-03-06T12:43:26.125Z,100603.95
2023-03-06T12:45:58.966Z,100591.70
2023-03-06T12:48:31.585Z,100589.92
2023-03-06T12:51:02.158Z,100584.94
2023-03-06T12:53:34.926Z,100582.02
2023-03-06T12:56:07.041Z,100579.75
2023-03-06T12:58:39.122Z,100585.66
2023-03-06T13:01:41.886Z,100572.89
2023-03-06T13:04:39.488Z,100569.68
2023-03-06T13:07:35.623Z,100571.02
2023-03-06T13:13:34.248Z,100561.88
2023-03-06T13:16:06.842Z,100558.67
2023-03-06T13:18:39.698Z,100563.97
2023-03-06T13:21:44.326Z,100561.28
2023-03-06T13:24:32.187Z,100556.52
2023-03-06T13:27:05.770Z,100543.72
2023-03-06T13:29:41.508Z,100544.51
2023-03-06T13:32:21.221Z,100545.48
2023-03-06T13:34:51.870Z,100540.63
2023-03-06T13:37:24.541Z,100537.53
2023-03-06T13:39:59.809Z,100536.84
2023-03-06T13:42:39.586Z,100535.27
2023-03-06T13:45:18.002Z,100533.16
2023-03-06T13:48:27.335Z,100533.22
2023-03-06T13:50:42.218Z,100531.44
2023-03-06T13:53:36.227Z,100521.36
2023-03-06T13:56:17.976Z,100521.36
2023-03-06T13:59:07.233Z,100511.41
2023-03-06T14:01:55.991Z,100513.58
2023-03-06T14:04:48.219Z,100515.09
2023-03-06T14:07:29.795Z,100508.66
2023-03-06T14:10:11.341Z,100496.13
2023-03-06T14:12:52.560Z,100496.13
2023-03-06T14:15:44.351Z,100494.80
2023-03-06T14:18:40.976Z,100494.19
2023-03-06T14:21:13.484Z,100495.96
2023-03-06T14:23:45.811Z,100496.09
2023-03-06T14:26:20.638Z,100512.13
2023-03-06T14:28:59.075Z,100504.45
2023-03-06T14:31:37.861Z,100513.51
2023-03-06T14:34:18.354Z,100510.81
2023-03-06T14:36:53.580Z,100511.39
2023-03-06T14:39:41.113Z,100507.03
2023-03-06T14:42:27.832Z,100492.28
2023-03-06T14:45:06.296Z,100483.47
2023-03-06T14:47:37.617Z,100484.41
2023-03-06T14:50:30.426Z,100481.70
2023-03-06T14:53:21.276Z,100477.66
2023-03-06T14:56:00.363Z,100465.03
2023-03-06T14:58:58.534Z,100465.82
2023-03-06T15:01:31.463Z,100470.93
2023-03-06T15:04:02.723Z,100460.91
2023-03-06T15:06:38.267Z,100454.31
2023-03-06T15:09:16.403Z,100457.55
2023-03-06T15:11:57.576Z,100448.62
2023-03-06T15:14:36.188Z,100448.62
2023-03-06T15:17:23.741Z,100435.83
2023-03-06T15:19:56.188Z,100435.33
2023-03-06T15:22:31.218Z,100433.14
2023-03-06T15:25:20.623Z,100439.57
2023-03-06T15:27:53.104Z,100435.06
2023-03-06T15:30:34.228Z,100427.13
2023-03-06T15:33:18.936Z,100426.94
2023-03-06T15:36:02.001Z,100421.55
2023-03-06T15:38:41.822Z,100421.55
2023-03-06T15:41:32.251Z,100426.97
2023-03-06T15:44:03.798Z,100428.65
2023-03-06T15:46:33.569Z,100431.72
2023-03-06T15:49:03.715Z,100428.73
2023-03-06T15:51:34.267Z,100430.98
2023-03-06T15:54:11.838Z,100429.75
2023-03-06T15:56:37.790Z,100419.73
2023-03-06T15:59:11.259Z,100406.55
2023-03-06T16:01:42.682Z,100402.03
2023-03-06T16:04:13.710Z,100402.14
2023-03-06T16:06:45.724Z,100392.33
2023-03-06T16:09:15.928Z,100387.53
2023-03-06T16:11:47.171Z,100388.11
2023-03-06T16:14:23.912Z,100385.69
2023-03-06T16:16:54.727Z,100378.55
2023-03-06T16:19:27.978Z,100372.73
2023-03-06T16:21:59.108Z,100366.91
2023-03-06T16:24:29.065Z,100367.70
2023-03-06T16:27:01.726Z,100362.92
2023-03-06T16:29:31.670Z,100365.20
2023-03-06T16:32:02.436Z,100354.52
2023-03-06T16:34:32.284Z,100354.39
2023-03-06T16:37:02.130Z,100352.28
2023-03-06T16:39:31.885Z,100354.59
2023-03-06T16:42:01.655Z,100357.19
2023-03-06T16:44:31.742Z,100354.06
2023-03-06T16:47:02.301Z,100348.02
2023-03-06T16:49:32.086Z,100356.71
2023-03-06T16:52:03.684Z,100353.12
2023-03-06T16:54:33.449Z,100350.11
2023-03-06T16:57:03.530Z,100354.20
2023-03-06T16:59:33.321Z,100355.22
2023-03-06T17:02:03.440Z,100353.17
2023-03-06T17:04:33.540Z,100344.70
2023-03-06T17:07:02.991Z,100349.80
2023-03-06T17:09:33.083Z,100340.10
2023-03-06T17:12:02.933Z,100348.13
2023-03-06T17:14:34.691Z,100345.13
2023-03-06T17:17:04.652Z,100336.48
2023-03-06T17:19:34.416Z,100332.52
2023-03-06T17:22:04.222Z,100329.98
2023-03-06T17:24:36.114Z,100327.43
2023-03-06T17:27:06.354Z,100323.78
2023-03-06T17:29:36.163Z,100322.39
2023-03-06T17:32:06.088Z,100328.41
2023-03-06T17:34:36.102Z,100328.85
2023-03-06T17:37:06.012Z,100329.23
2023-03-06T17:39:38.656Z,100329.23
2023-03-06T17:42:08.979Z,100327.05
2023-03-06T17:44:39.520Z,100322.11
2023-03-06T17:47:09.286Z,100318.52
2023-03-06T17:49:39.075Z,100320.30
2023-03-06T17:52:11.828Z,100323.75
2023-03-06T17:54:41.911Z,100330.19
2023-03-06T17:57:11.763Z,100321.67
2023-03-06T17:59:43.135Z,100314.14
2023-03-06T18:02:13.173Z,100323.16
2023-03-06T18:04:43.269Z,100321.67
2023-03-06T18:07:13.473Z,100316.23
2023-03-06T18:09:43.969Z,100311.42
2023-03-06T18:12:13.446Z,100312.01
2023-03-06T18:14:43.211Z,100306.67
2023-03-06T18:17:13.454Z,100306.66
2023-03-06T18:19:43.281Z,100308.16
2023-03-06T18:22:12.721Z,100306.01
2023-03-06T18:24:42.513Z,100302.80
2023-03-06T18:27:12.456Z,100301.99
2023-03-06T18:29:43.781Z,100290.84
2023-03-06T18:32:15.765Z,100291.65
2023-03-06T18:34:46.199Z,100288.27
2023-03-06T18:37:16.115Z,100281.58
2023-03-06T18:39:46.353Z,100271.34
2023-03-06T18:42:16.388Z,100270.45
2023-03-06T18:44:48.079Z,100261.84
2023-03-06T18:47:17.926Z,100264.77
2023-03-06T18:49:47.810Z,100255.31
2023-03-06T18:52:17.587Z,100247.13
2023-03-06T18:54:50.088Z,100249.13
2023-03-06T18:57:20.130Z,100248.02
2023-03-06T18:59:50.136Z,100244.02
2023-03-06T19:02:20.237Z,100235.77
2023-03-06T19:04:50.478Z,100232.35
2023-03-06T19:07:20.781Z,100226.36
2023-03-06T19:09:50.587Z,100228.40
2023-03-06T19:12:20.557Z,100231.08
2023-03-06T19:14:50.124Z,100214.74
2023-03-06T19:17:20.185Z,100204.52
2023-03-06T19:19:51.522Z,100205.33
2023-03-06T19:22:22.069Z,100203.93
2023-03-06T19:24:51.823Z,100200.00
2023-03-06T19:27:22.258Z,100199.08
2023-03-06T19:29:52.051Z,100190.92
2023-03-06T19:32:22.348Z,100199.08
2023-03-06T19:34:52.303Z,100191.23
2023-03-06T19:37:22.056Z,100189.84
2023-03-06T19:39:51.817Z,100190.91
2023-03-06T19:42:21.487Z,100184.16
2023-03-06T19:44:51.260Z,100174.58
2023-03-06T19:47:21.221Z,100169.65
2023-03-06T19:49:51.083Z,100170.35
2023-03-06T19:52:20.594Z,100173.09
2023-03-06T19:54:50.381Z,100168.98
2023-03-06T19:57:20.684Z,100166.02
2023-03-06T19:59:51.548Z,100154.20
2023-03-06T20:02:22.954Z,100156.66
2023-03-06T20:04:53.423Z,100156.50
2023-03-06T20:07:23.916Z,100148.31
2023-03-06T20:09:54.301Z,100141.80
2023-03-06T20:12:24.165Z,100134.21
2023-03-06T20:14:53.919Z,100135.94
2023-03-06T20:17:23.735Z,100123.59
2023-03-06T20:19:53.776Z,100128.13
2023-03-06T20:22:23.548Z,100122.29
2023-03-06T20:24:53.749Z,100125.50
2023-03-06T20:27:23.808Z,100130.59
2023-03-06T20:29:53.959Z,100120.14
2023-03-06T20:32:23.819Z,100120.73
2023-03-06T20:34:53.900Z,100113.67
2023-03-06T20:37:23.667Z,100098.55
2023-03-06T20:39:53.611Z,100098.36
2023-03-06T20:42:23.459Z,100092.31
2023-03-06T20:44:53.611Z,100090.83
2023-03-06T20:47:23.401Z,100090.39
2023-03-06T20:49:53.540Z,100089.21
2023-03-06T20:52:23.284Z,100087.28
2023-03-06T20:54:53.125Z,100082.64
2023-03-06T20:57:22.880Z,100075.46
2023-03-06T20:59:52.467Z,100079.34
2023-03-06T21:02:22.266Z,100076.67
2023-03-06T21:04:52.220Z,100079.33
2023-03-06T21:07:22.559Z,100061.59
2023-03-06T21:09:52.397Z,100061.59
2023-03-06T21:12:22.158Z,100061.73
2023-03-06T21:14:52.100Z,100061.73
2023-03-06T21:17:22.210Z,100059.80
2023-03-06T21:19:52.766Z,100049.45
2023-03-06T21:22:23.030Z,100049.66
2023-03-06T21:24:52.797Z,100047.67
2023-03-06T21:27:22.670Z,100042.76
2023-03-06T21:29:52.714Z,100035.04
2023-03-06T21:32:23.035Z,100026.77
2023-03-06T21:34:53.210Z,100025.45
2023-03-06T21:37:22.994Z,100024.29
2023-03-06T21:39:52.852Z,100018.31
2023-03-06T21:42:22.603Z,100017.86
2023-03-06T21:44:52.385Z,100017.86
2023-03-06T21:47:22.269Z,100013.30
2023-03-06T21:49:52.029Z,100007.84
2023-03-06T21:52:21.807Z,100005.42
2023-03-06T21:54:51.923Z,100001.62
2023-03-06T21:57:21.652Z,99998.79
2023-03-06T21:59:51.429Z,99999.38
2023-03-06T22:02:21.509Z,99991.19
2023-03-06T22:04:53.578Z,99994.70
2023-03-06T22:07:23.337Z,100000.23
2023-03-06T22:09:54.046Z,99991.52
2023-03-06T22:12:23.802Z,99989.59
2023-03-06T22:14:54.578Z,99978.60
2023-03-06T22:17:24.639Z,99970.33
2023-03-06T22:19:54.606Z,99970.33
2023-03-06T22:22:24.839Z,99959.67
2023-03-06T22:24:54.604Z,99955.83
2023-03-06T22:27:24.512Z,99955.87
2023-03-06T22:29:54.637Z,99946.59
2023-03-06T22:32:24.519Z,99949.17
2023-03-06T22:34:54.781Z,99946.56
2023-03-06T22:37:24.625Z,99947.03
2023-03-06T22:39:54.390Z,99952.92
2023-03-06T22:42:24.236Z,99951.45
2023-03-06T22:44:53.977Z,99951.45
2023-03-06T22:47:23.864Z,99937.81
2023-03-06T22:49:53.718Z,99939.80
2023-03-06T22:52:23.531Z,99948.16
2023-03-06T22:54:53.620Z,99937.85
2023-03-06T22:57:23.687Z,99947.70
2023-03-06T22:59:53.477Z,99944.94
2023-03-06T23:02:23.297Z,99932.27
2023-03-06T23:04:53.419Z,99936.30
2023-03-06T23:07:23.251Z,99950.53
2023-03-06T23:09:54.736Z,99938.89
2023-03-06T23:12:44.038Z,99934.14
2023-03-06T23:15:31.368Z,99945.20
2023-03-06T23:18:19.258Z,99948.23
2023-03-06T23:21:18.154Z,99935.41
2023-03-06T23:24:06.848Z,99939.91
2023-03-06T23:26:36.419Z,99937.85
2023-03-06T23:29:06.267Z,99933.75
2023-03-06T23:31:35.822Z,99935.23
2023-03-06T23:34:06.110Z,99924.29
2023-03-06T23:36:36.352Z,99932.79
2023-03-06T23:39:06.247Z,99939.41
2023-03-06T23:41:36.092Z,99925.56
2023-03-06T23:44:05.824Z,99924.28
2023-03-06T23:46:35.697Z,99916.94
2023-03-06T23:49:06.325Z,99927.67
2023-03-06T23:51:36.084Z,99926.67
2023-03-06T23:54:06.864Z,99921.19
2023-03-06T23:56:36.716Z,99920.34
2023-03-06T23:59:06.471Z,99915.58
